Time;durP1;ratioP1;P1;durP2;ratioP2;P2;SDS_P1;SDS_P2;PMS_P1;PMS_P2;Temp;Humidity;BMP_temperature;BMP_pressure;BME280_temperature;BME280_humidity;BME280_pressure;Samples;Min_cycle;Max_cycle;Signal;HPM_P1;HPM_P2
2022/09/15 00:03:37;;;;;;;;;;;19.30;51.90;;;17.38;56.52;99929.69;12250204;19;19911;-87
2022/09/15 00:07:41;;;;;;;;;;;19.20;51.80;;;17.31;56.30;99918.06;12254874;19;19944;-87
2022/09/15 00:11:43;;;;;;;;;;;19.20;51.80;;;17.33;56.61;99932.78;12252845;19;19918;-87
2022/09/15 00:15:45;;;;;;;;;;;19.20;51.80;;;17.28;56.63;99921.81;12267544;19;19911;-86
2022/09/15 00:19:47;;;;;;;;;;;19.20;51.80;;;17.27;56.46;99922.00;12269122;19;19921;-87
2022/09/15 00:23:49;;;;;;;;;;;19.20;51.90;;;16.92;56.44;99862.88;12260775;19;19907;-86
2022/09/15 00:27:50;;;;;;;;;;;19.10;51.80;;;17.24;56.58;99921.31;12259357;19;20341;-86
2022/09/15 00:31:52;;;;;;;;;;;19.30;51.90;;;17.22;56.44;99911.88;12255120;19;19915;-87
2022/09/15 00:35:54;;;;;;;;;;;19.10;51.80;;;17.18;56.48;99907.88;12258946;19;19936;-87
2022/09/15 00:39:55;;;;;;;;;;;19.10;51.80;;;17.21;56.50;99915.50;12263853;19;19917;-86
2022/09/15 00:44:00;;;;;;;;;;;19.10;51.80;;;17.11;56.71;99907.63;12258956;19;19903;-86
2022/09/15 00:48:03;;;;;;;;;;;19.30;51.90;;;17.03;56.87;99886.44;12263400;19;19911;-87
2022/09/15 00:52:09;;;;;;;;;;;19.00;51.80;;;17.10;56.76;99908.63;12258385;19;20315;-87
2022/09/15 00:56:12;;;;;;;;;;;19.00;51.80;;;16.90;56.74;99878.03;12260539;19;19923;-87
2022/09/15 01:00:17;;;;;;;;;;;19.00;51.70;;;16.93;56.55;99899.69;12260464;19;20243;-88
2022/09/15 01:04:18;;;;;;;;;;;19.00;51.80;;;16.99;56.50;99916.72;12256451;19;19926;-87
2022/09/15 01:08:45;;;;;;;;;;;19.20;51.90;;;16.98;56.73;99920.31;12258566;19;19915;-86
2022/09/15 01:12:47;;;;;;;;;;;18.90;51.80;;;16.98;56.90;99925.59;12253827;19;19923;-87
2022/09/15 01:17:05;;;;;;;;;;;18.90;51.90;;;16.99;56.88;99924.63;12257590;19;19915;-86
2022/09/15 01:21:28;;;;;;;;;;;18.80;51.90;;;16.98;56.67;99922.97;12252194;19;19923;-87
2022/09/15 01:26:08;;;;;;;;;;;18.90;52.00;;;16.99;56.73;99924.63;12253157;19;19922;-85
2022/09/15 01:30:23;;;;;;;;;;;18.80;51.90;;;16.91;56.84;99908.72;12267890;19;19911;-86
2022/09/15 01:34:26;;;;;;;;;;;18.80;51.90;;;16.92;56.71;99918.28;12254754;19;19923;-87
2022/09/15 01:38:54;;;;;;;;;;;18.80;51.90;;;16.88;56.74;99923.00;12255079;19;19915;-87
2022/09/15 01:42:56;;;;;;;;;;;18.80;51.90;;;16.87;56.80;99926.63;12252406;19;20602;-86
2022/09/15 01:47:02;;;;;;;;;;;18.60;51.80;;;16.86;56.77;99932.03;12250863;19;20077;-86
2022/09/15 01:51:05;;;;;;;;;;;18.70;51.90;;;16.79;56.91;99924.69;12253001;19;19950;-87
2022/09/15 01:55:15;;;;;;;;;;;18.70;52.00;;;16.76;57.13;99932.88;12255323;19;19914;-87
2022/09/15 01:59:16;;;;;;;;;;;18.70;52.10;;;16.60;56.61;99898.38;12254944;19;20333;-87
2022/09/15 02:03:37;;;;;;;;;;;18.60;52.10;;;16.77;56.98;99931.13;12250246;19;19922;-87
2022/09/15 02:07:47;;;;;;;;;;;18.60;52.10;;;16.71;57.09;99915.81;12253787;19;19915;-87
2022/09/15 02:12:00;;;;;;;;;;;18.50;52.10;;;16.71;56.95;99921.91;12250640;19;19915;-86
2022/09/15 02:16:03;;;;;;;;;;;18.60;52.10;;;16.39;56.89;99877.50;12252387;19;19919;-87
2022/09/15 02:20:16;;;;;;;;;;;18.60;52.20;;;16.74;57.14;99931.34;12252825;19;19923;-87
2022/09/15 02:24:22;;;;;;;;;;;18.50;52.20;;;16.68;57.10;99926.66;12249754;19;19933;-86
2022/09/15 02:28:28;;;;;;;;;;;18.50;52.20;;;16.67;56.88;99920.56;12248683;19;20357;-87
2022/09/15 02:32:33;;;;;;;;;;;18.50;52.10;;;16.71;57.19;99935.09;12247044;19;19986;-86
2022/09/15 02:36:35;;;;;;;;;;;18.50;52.20;;;16.65;56.93;99925.13;12244504;19;20384;-86
2022/09/15 02:40:40;;;;;;;;;;;18.70;52.30;;;16.67;57.18;99925.84;12249494;19;19915;-86
2022/09/15 02:44:41;;;;;;;;;;;18.50;52.20;;;16.61;57.20;99918.50;12250263;19;19907;-86
2022/09/15 02:48:42;;;;;;;;;;;18.50;52.30;;;16.57;57.12;99910.03;12253895;19;20339;-85
2022/09/15 02:52:44;;;;;;;;;;;18.50;52.20;;;16.65;57.16;99916.41;12247962;19;19911;-87
2022/09/15 02:56:46;;;;;;;;;;;18.50;52.20;;;16.22;57.00;99852.72;12251670;19;19918;-87
2022/09/15 03:00:48;;;;;;;;;;;18.60;52.30;;;16.46;57.09;99891.75;12252047;19;19931;-86
2022/09/15 03:04:50;;;;;;;;;;;18.50;52.20;;;16.50;57.13;99906.31;12251070;19;19957;-86
2022/09/15 03:08:57;;;;;;;;;;;18.60;52.30;;;16.43;56.98;99907.03;12250108;19;19922;-86
2022/09/15 03:12:58;;;;;;;;;;;18.50;52.30;;;16.34;57.28;99909.56;12248183;19;19919;-87
2022/09/15 03:17:01;;;;;;;;;;;18.80;52.40;;;16.03;57.30;99863.28;12251643;19;19923;-87
2022/09/15 03:21:04;;;;;;;;;;;18.40;52.30;;;16.31;57.09;99920.38;12249638;19;19953;-86
2022/09/15 03:25:07;;;;;;;;;;;18.30;52.30;;;16.19;57.35;99904.88;12251151;19;19919;-87
2022/09/15 03:29:08;;;;;;;;;;;18.30;52.40;;;15.89;57.31;99862.75;12261091;19;19911;-87
2022/09/15 03:33:09;;;;;;;;;;;18.20;52.50;;;16.32;57.42;99931.75;12246558;19;19933;-86
2022/09/15 03:37:11;;;;;;;;;;;18.20;52.50;;;16.21;57.41;99918.72;12252275;19;19911;-86
2022/09/15 03:41:12;;;;;;;;;;;18.20;52.60;;;16.30;57.43;99929.22;12248202;19;19955;-87
2022/09/15 03:45:14;;;;;;;;;;;18.20;52.60;;;16.24;57.39;99918.44;12250590;19;19919;-88
2022/09/15 03:49:16;;;;;;;;;;;18.20;52.50;;;16.26;57.54;99917.34;12258831;19;19923;-88
2022/09/15 03:53:19;;;;;;;;;;;18.40;52.60;;;16.29;57.28;99921.50;12257445;19;19915;-86
2022/09/15 03:57:20;;;;;;;;;;;18.20;52.50;;;16.32;57.40;99929.94;12261056;19;19975;-87
2022/09/15 04:01:22;;;;;;;;;;;18.20;52.50;;;16.13;57.27;99891.28;12258313;19;19925;-87
2022/09/15 04:05:24;;;;;;;;;;;18.40;52.50;;;16.24;57.39;99919.28;12260884;19;19936;-87
2022/09/15 04:09:25;;;;;;;;;;;18.10;52.30;;;16.09;57.41;99896.97;12262084;19;19915;-86
2022/09/15 04:13:27;;;;;;;;;;;18.10;52.30;;;15.95;57.39;99882.41;12256355;19;19919;-86
2022/09/15 04:17:28;;;;;;;;;;;18.10;52.30;;;16.11;57.42;99914.28;12258446;19;19934;-86
2022/09/15 04:21:30;;;;;;;;;;;18.30;52.40;;;16.00;57.30;99892.53;12260213;19;19922;-87
2022/09/15 04:25:32;;;;;;;;;;;18.10;52.20;;;16.18;57.52;99925.09;12260068;19;19915;-87
2022/09/15 04:29:33;;;;;;;;;;;18.10;52.20;;;15.93;57.28;99893.13;12259965;19;19925;-86
2022/09/15 04:33:36;;;;;;;;;;;18.10;52.20;;;16.07;57.51;99920.00;12249381;19;19925;-86
2022/09/15 04:37:37;;;;;;;;;;;18.00;52.10;;;16.02;57.13;99923.03;12256441;19;19923;-86
2022/09/15 04:41:39;;;;;;;;;;;18.00;52.00;;;15.99;57.37;99925.13;12254209;19;19929;-86
2022/09/15 04:45:40;;;;;;;;;;;17.90;52.00;;;15.90;57.35;99905.72;12254884;19;19946;-86
2022/09/15 04:49:42;;;;;;;;;;;18.00;52.00;;;15.48;57.27;99848.88;12248752;19;19934;-86
2022/09/15 04:53:44;;;;;;;;;;;17.80;51.90;;;15.57;57.28;99873.53;12245098;19;19926;-86
2022/09/15 04:57:46;;;;;;;;;;;17.80;52.00;;;15.77;57.47;99915.69;12248505;19;19915;-86
2022/09/15 05:01:48;;;;;;;;;;;17.80;52.10;;;15.74;57.28;99905.44;12248527;19;19919;-86
2022/09/15 05:05:49;;;;;;;;;;;17.80;52.10;;;15.76;57.64;99917.50;12255609;19;20138;-87
2022/09/15 05:09:51;;;;;;;;;;;17.70;52.20;;;15.65;57.48;99897.34;12252845;19;19975;-87
2022/09/15 05:13:53;;;;;;;;;;;17.70;52.30;;;15.74;57.48;99922.06;12251095;19;19918;-86
2022/09/15 05:17:55;;;;;;;;;;;17.70;52.40;;;15.72;57.45;99917.94;12256369;19;19975;-86
2022/09/15 05:21:56;;;;;;;;;;;17.80;52.40;;;15.76;57.67;99935.91;12252279;19;20717;-86
2022/09/15 05:26:00;;;;;;;;;;;17.70;52.50;;;15.46;57.57;99887.66;12255063;19;19949;-86
2022/09/15 05:30:01;;;;;;;;;;;18.00;52.60;;;15.57;57.62;99899.03;12264467;19;19927;-87
2022/09/15 05:34:04;;;;;;;;;;;17.60;52.50;;;15.64;57.50;99921.22;12250733;19;19930;-86
2022/09/15 05:38:05;;;;;;;;;;;17.60;52.60;;;15.64;57.58;99919.41;12259021;19;19915;-85
2022/09/15 05:42:07;;;;;;;;;;;18.00;52.80;;;15.65;57.75;99921.06;12250668;19;19919;-85
2022/09/15 05:46:09;;;;;;;;;;;18.00;53.00;;;15.59;57.74;99902.34;12258971;19;19911;-85
2022/09/15 05:50:11;;;;;;;;;;;17.60;52.80;;;15.74;57.74;99927.31;12259996;19;20310;-85
2022/09/15 05:54:12;;;;;;;;;;;17.60;52.90;;;15.82;57.78;99924.81;12259708;19;19918;-85
2022/09/15 05:58:14;;;;;;;;;;;18.00;53.10;;;15.61;57.83;99887.28;12264678;19;19910;-86
2022/09/15 06:02:15;;;;;;;;;;;18.10;53.20;;;15.81;57.76;99912.66;12257249;19;19936;-85
2022/09/15 06:06:17;;;;;;;;;;;17.70;53.10;;;15.76;57.80;99901.69;12262209;19;20365;-86
2022/09/15 06:10:18;;;;;;;;;;;17.70;53.00;;;15.95;57.83;99935.09;12262108;19;19922;-86
2022/09/15 06:14:19;;;;;;;;;;;17.80;53.10;;;15.96;57.92;99942.03;12257531;19;20333;-86
2022/09/15 06:18:21;;;;;;;;;;;18.00;53.30;;;16.03;57.79;99942.31;12259190;19;19930;-86
2022/09/15 06:22:23;;;;;;;;;;;17.80;53.20;;;15.66;57.84;99871.88;12256352;19;20322;-86
2022/09/15 06:26:25;;;;;;;;;;;17.90;53.40;;;16.07;57.99;99934.00;12256887;19;20260;-86
2022/09/15 06:30:26;;;;;;;;;;;18.00;53.40;;;16.13;57.91;99932.59;12251261;19;19933;-86
2022/09/15 06:34:28;;;;;;;;;;;18.00;53.50;;;16.12;58.06;99921.25;12251896;19;19914;-85
2022/09/15 06:38:30;;;;;;;;;;;18.00;53.50;;;16.10;57.92;99914.44;12252295;19;19915;-87
2022/09/15 06:42:31;;;;;;;;;;;18.00;53.40;;;16.27;57.93;99934.78;12248288;19;20268;-85
2022/09/15 06:46:35;;;;;;;;;;;18.10;53.40;;;16.22;57.93;99913.31;12245589;19;19923;-85
2022/09/15 06:50:36;;;;;;;;;;;18.20;53.50;;;16.18;57.94;99895.31;12245457;19;19911;-87
2022/09/15 06:54:37;;;;;;;;;;;18.20;53.60;;;16.34;57.91;99914.81;12248225;19;19914;-86
2022/09/15 06:58:40;;;;;;;;;;;18.50;53.70;;;16.51;58.09;99936.97;12248129;19;19919;-86
2022/09/15 07:02:42;;;;;;;;;;;18.30;53.60;;;16.26;58.06;99883.09;12245077;19;20333;-86
2022/09/15 07:06:44;;;;;;;;;;;18.60;53.50;;;16.72;58.07;99941.22;12247224;19;19927;-86
2022/09/15 07:10:45;;;;;;;;;;;18.70;53.70;;;16.81;58.16;99935.13;12244552;19;19923;-86
2022/09/15 07:14:47;;;;;;;;;;;18.60;53.80;;;16.94;57.87;99932.16;12246031;19;19974;-85
2022/09/15 07:18:48;;;;;;;;;;;19.00;53.90;;;17.01;58.06;99935.84;12247657;19;19910;-86
2022/09/15 07:22:50;;;;;;;;;;;18.70;53.70;;;17.09;58.12;99943.03;12248261;19;19930;-86
2022/09/15 07:26:51;;;;;;;;;;;19.20;53.80;;;17.22;58.11;99948.81;12264935;19;19915;-86
2022/09/15 07:30:53;;;;;;;;;;;18.90;53.70;;;17.29;57.92;99947.25;12259995;19;20350;-86
2022/09/15 07:34:54;;;;;;;;;;;19.30;53.80;;;17.32;58.08;99940.84;12259225;19;19951;-86
2022/09/15 07:38:56;;;;;;;;;;;19.10;53.70;;;17.41;58.10;99934.69;12261482;19;19923;-85
2022/09/15 07:42:58;;;;;;;;;;;19.20;53.60;;;17.50;57.89;99935.59;12258353;19;20347;-86
2022/09/15 07:46:59;;;;;;;;;;;19.30;53.60;;;17.74;57.92;99964.06;12258642;19;19922;-86
2022/09/15 07:51:01;;;;;;;;;;;19.40;53.60;;;17.85;58.03;99974.47;12257859;19;19930;-86
2022/09/15 07:55:02;;;;;;;;;;;19.50;53.60;;;17.97;58.11;99975.06;12260002;19;19944;-86
2022/09/15 07:59:04;;;;;;;;;;;19.70;53.80;;;18.09;58.15;99972.03;12260667;19;19922;-85
2022/09/15 08:03:05;;;;;;;;;;;19.80;53.70;;;18.20;57.96;99970.13;12255782;19;19923;-86
2022/09/15 08:07:07;;;;;;;;;;;20.10;53.60;;;18.41;58.14;99980.38;12258603;19;19985;-85
2022/09/15 08:11:11;;;;;;;;;;;20.00;53.50;;;18.31;57.78;99954.06;12257788;19;19915;-86
2022/09/15 08:15:12;;;;;;;;;;;20.50;53.50;;;18.51;58.00;99986.41;12257361;19;19922;-85
2022/09/15 08:19:14;;;;;;;;;;;20.20;53.10;;;18.48;57.72;99982.25;12258731;19;20270;-85
2022/09/15 08:23:15;;;;;;;;;;;20.30;53.00;;;18.47;57.91;99975.31;12255182;19;19925;-86
2022/09/15 08:27:17;;;;;;;;;;;20.40;53.00;;;17.92;57.71;99902.38;12258395;19;19974;-86
2022/09/15 08:31:18;;;;;;;;;;;20.30;52.80;;;18.46;57.73;99989.50;12255928;19;19938;-86
2022/09/15 08:35:20;;;;;;;;;;;20.30;52.70;;;18.39;57.88;99987.63;12258588;19;19915;-85
2022/09/15 08:39:21;;;;;;;;;;;20.30;52.70;;;18.49;58.04;99980.44;12254695;19;19951;-85
2022/09/15 08:43:26;;;;;;;;;;;20.30;52.70;;;18.57;58.03;100002.47;12252919;19;19953;-86
2022/09/15 08:47:39;;;;;;;;;;;20.40;52.80;;;18.58;57.83;99988.28;12251846;19;19922;-86
2022/09/15 08:51:45;;;;;;;;;;;20.40;52.80;;;18.67;57.97;99988.34;12249175;19;19934;-85
2022/09/15 08:55:59;;;;;;;;;;;20.40;52.80;;;18.70;57.79;99985.38;12250878;19;19923;-86
2022/09/15 09:00:00;;;;;;;;;;;20.50;52.80;;;18.80;57.99;99980.84;12237252;19;19922;-85
2022/09/15 09:04:10;;;;;;;;;;;20.60;52.80;;;18.89;57.59;99985.19;12236906;19;19927;-84
2022/09/15 09:08:35;;;;;;;;;;;20.60;52.80;;;18.91;57.70;99999.09;12256617;19;19922;-85
2022/09/15 09:12:45;;;;;;;;;;;20.70;52.60;;;18.94;57.94;100001.44;12248360;19;19919;-85
2022/09/15 09:17:09;;;;;;;;;;;20.70;52.60;;;18.94;57.96;99988.22;12252340;19;19922;-85
2022/09/15 09:21:25;;;;;;;;;;;20.70;52.60;;;19.04;57.71;100009.28;12250857;19;19923;-85
2022/09/15 09:25:26;;;;;;;;;;;20.80;52.70;;;19.07;57.93;99997.53;12260993;19;19944;-86
2022/09/15 09:29:39;;;;;;;;;;;20.80;52.60;;;19.04;57.54;99987.25;12256846;19;19911;-85
2022/09/15 09:33:50;;;;;;;;;;;20.90;52.60;;;19.00;57.68;99966.41;12246477;19;19935;-86
2022/09/15 09:37:52;;;;;;;;;;;20.90;52.40;;;18.97;57.90;99956.13;12253002;19;19919;-85
2022/09/15 09:41:54;;;;;;;;;;;20.90;52.30;;;18.97;57.55;99961.44;12252100;19;19923;-86
2022/09/15 09:45:55;;;;;;;;;;;20.90;52.30;;;18.86;57.74;99922.03;12250876;19;19915;-85
2022/09/15 09:49:57;;;;;;;;;;;21.00;52.40;;;19.18;57.61;99973.44;12250574;19;19952;-85
2022/09/15 09:54:15;;;;;;;;;;;21.00;52.40;;;19.25;57.59;99974.44;12249875;19;19930;-85
2022/09/15 09:58:19;;;;;;;;;;;21.10;52.20;;;18.86;57.44;99908.78;12254441;19;19919;-87
2022/09/15 10:02:23;;;;;;;;;;;21.00;52.30;;;19.43;57.66;99988.41;12251340;19;19940;-85
2022/09/15 10:06:28;;;;;;;;;;;21.50;52.40;;;19.42;57.25;99984.13;12251814;19;19923;-85
2022/09/15 10:10:31;;;;;;;;;;;21.30;52.20;;;19.38;57.56;99979.31;12250086;19;19914;-86
2022/09/15 10:14:40;;;;;;;;;;;21.20;52.00;;;19.49;57.52;99991.41;12250428;19;19911;-85
2022/09/15 10:18:41;;;;;;;;;;;21.60;52.20;;;19.52;57.45;99991.09;12256450;19;21297;-85
2022/09/15 10:22:43;;;;;;;;;;;21.30;52.00;;;19.52;57.36;99967.25;12250283;19;20744;-86
2022/09/15 10:26:44;;;;;;;;;;;21.60;52.10;;;19.68;57.41;99983.22;12253558;19;19939;-86
2022/09/15 10:31:06;;;;;;;;;;;21.40;52.00;;;19.79;57.45;99982.91;12250973;19;19919;-86
2022/09/15 10:35:19;;;;;;;;;;;21.50;52.00;;;19.91;57.49;99987.94;12252838;19;20339;-87
2022/09/15 10:39:20;;;;;;;;;;;21.60;51.90;;;19.96;57.00;99994.41;12256052;19;20348;-86
2022/09/15 10:43:34;;;;;;;;;;;21.60;51.70;;;20.03;57.00;99994.56;12254182;19;19918;-86
2022/09/15 10:48:01;;;;;;;;;;;21.70;51.70;;;20.09;57.24;99980.63;12254320;19;20341;-86
2022/09/15 10:52:16;;;;;;;;;;;21.80;51.80;;;20.19;57.31;99977.84;12250992;19;20252;-85
2022/09/15 10:56:24;;;;;;;;;;;21.90;51.50;;;20.29;56.87;99975.84;12250384;19;19915;-85
2022/09/15 11:00:32;;;;;;;;;;;22.00;51.40;;;20.23;56.96;99957.97;12251503;19;19919;-86
2022/09/15 11:04:50;;;;;;;;;;;22.00;51.20;;;20.43;56.74;99987.63;12250314;19;19918;-86
2022/09/15 11:09:07;;;;;;;;;;;22.10;51.20;;;20.50;56.89;99976.19;12251843;19;19922;-85
2022/09/15 11:13:19;;;;;;;;;;;22.20;51.50;;;20.68;56.79;99983.94;12248845;19;19926;-87
2022/09/15 11:17:41;;;;;;;;;;;22.30;51.70;;;20.77;56.83;99963.56;12252709;19;19907;-86
2022/09/15 11:22:00;;;;;;;;;;;22.40;51.40;;;21.02;56.71;99966.16;12249220;19;19936;-86
2022/09/15 11:26:43;;;;;;;;;;;22.70;51.60;;;21.12;56.62;99970.25;12250741;19;19915;-85
2022/09/15 11:31:16;;;;;;;;;;;22.70;50.80;;;20.98;56.72;99949.72;12250751;19;19996;-84
2022/09/15 11:35:43;;;;;;;;;;;22.80;50.30;;;20.95;56.32;99955.38;12251434;19;19907;-85
2022/09/15 11:39:49;;;;;;;;;;;22.80;50.40;;;20.94;56.56;99959.03;12249661;19;19911;-84
2022/09/15 11:44:00;;;;;;;;;;;22.80;50.00;;;20.88;56.32;99965.03;12246032;19;19927;-85
2022/09/15 11:48:51;;;;;;;;;;;22.70;50.20;;;20.81;56.31;99964.03;12246401;19;20329;-84
2022/09/15 11:53:24;;;;;;;;;;;22.70;49.80;;;20.85;56.43;99970.69;12236473;19;19922;-85
2022/09/15 11:57:42;;;;;;;;;;;22.60;49.70;;;20.74;56.38;99953.28;12244186;19;19930;-86
2022/09/15 12:01:59;;;;;;;;;;;22.70;49.70;;;20.94;56.14;99977.63;12247013;19;19915;-85
2022/09/15 12:06:13;;;;;;;;;;;22.70;49.80;;;20.81;55.98;99950.78;12249960;19;20322;-85
2022/09/15 12:10:49;;;;;;;;;;;22.70;49.20;;;20.93;56.05;99975.97;12257057;19;19927;-86
2022/09/15 12:14:51;;;;;;;;;;;22.60;49.50;;;20.52;55.95;99913.19;12258020;19;19946;-85
2022/09/15 12:19:07;;;;;;;;;;;22.60;49.70;;;20.94;55.72;99981.09;12260748;19;19935;-85
2022/09/15 12:23:20;;;;;;;;;;;22.60;49.80;;;20.88;55.89;99978.31;12257910;19;19927;-86
2022/09/15 12:27:22;;;;;;;;;;;22.80;49.70;;;20.82;55.85;99976.31;12260478;19;20418;-85
2022/09/15 12:31:29;;;;;;;;;;;22.60;49.50;;;20.80;55.83;99981.78;12255493;19;19929;-86
2022/09/15 12:35:32;;;;;;;;;;;22.60;49.50;;;20.60;56.06;99943.34;12259747;19;20262;-85
2022/09/15 12:39:40;;;;;;;;;;;22.60;49.60;;;20.46;55.67;99923.63;12258958;19;19939;-85
2022/09/15 12:43:49;;;;;;;;;;;22.50;49.30;;;20.76;55.60;99980.47;12256010;19;20249;-86
2022/09/15 12:48:04;;;;;;;;;;;22.50;49.10;;;20.62;55.83;99959.94;12258021;19;19907;-85
2022/09/15 12:52:07;;;;;;;;;;;22.60;49.10;;;20.31;55.54;99929.63;12253722;19;19926;-85
2022/09/15 12:56:20;;;;;;;;;;;22.50;49.10;;;20.44;55.77;99960.94;12255874;19;19987;-85
2022/09/15 13:00:22;;;;;;;;;;;22.40;49.20;;;20.53;55.52;99982.97;12256583;19;19925;-85
2022/09/15 13:04:40;;;;;;;;;;;22.30;49.00;;;20.37;55.47;99973.19;12260334;19;19943;-85
2022/09/15 13:08:51;;;;;;;;;;;22.30;49.10;;;20.43;55.60;99988.44;12255189;19;19923;-84
2022/09/15 13:13:03;;;;;;;;;;;22.20;49.30;;;20.33;56.00;99969.22;12253839;19;19915;-85
2022/09/15 13:17:32;;;;;;;;;;;22.20;49.30;;;20.48;55.56;99974.69;12256507;19;19947;-86
2022/09/15 13:21:36;;;;;;;;;;;22.20;49.40;;;20.46;55.39;99969.53;12253157;19;19927;-86
2022/09/15 13:25:39;;;;;;;;;;;22.20;48.60;;;20.44;55.74;99962.72;12265202;19;19951;-85
2022/09/15 13:29:51;;;;;;;;;;;22.20;49.20;;;20.50;55.43;99962.09;12260296;19;20664;-84
2022/09/15 13:34:05;;;;;;;;;;;22.30;49.30;;;20.55;55.67;99965.94;12253993;19;19923;-85
2022/09/15 13:38:34;;;;;;;;;;;22.30;49.50;;;20.58;55.29;99963.91;12257538;19;19926;-85
2022/09/15 13:42:54;;;;;;;;;;;22.30;49.30;;;20.51;55.43;99948.63;12250797;19;20281;-85
2022/09/15 13:47:19;;;;;;;;;;;22.30;49.50;;;20.53;55.51;99943.19;12250894;19;19931;-85
2022/09/15 13:51:25;;;;;;;;;;;22.30;49.20;;;20.58;55.44;99945.34;12240653;19;19923;-85
2022/09/15 13:55:31;;;;;;;;;;;22.30;49.30;;;20.60;55.22;99941.53;12251084;19;19934;-84
2022/09/15 13:59:33;;;;;;;;;;;22.30;49.20;;;20.52;55.13;99942.34;12253425;19;19914;-85
2022/09/15 14:03:44;;;;;;;;;;;22.40;49.10;;;20.42;55.00;99917.00;12248937;19;19923;-85
2022/09/15 14:07:53;;;;;;;;;;;22.30;49.20;;;20.57;54.96;99933.91;12251723;19;20332;-85
2022/09/15 14:11:58;;;;;;;;;;;22.40;49.10;;;20.55;55.07;99927.97;12251567;19;19926;-85
2022/09/15 14:16:02;;;;;;;;;;;22.40;49.10;;;20.63;55.38;99930.59;12249844;19;20326;-85
2022/09/15 14:20:21;;;;;;;;;;;22.40;49.30;;;20.74;55.28;99948.81;12252972;19;20340;-84
2022/09/15 14:24:27;;;;;;;;;;;22.40;49.10;;;20.72;54.88;99932.22;12250236;19;19915;-85
2022/09/15 14:28:31;;;;;;;;;;;22.40;48.90;;;20.27;55.17;99869.94;12249785;19;19907;-85
2022/09/15 14:32:43;;;;;;;;;;;22.40;49.10;;;20.73;54.86;99938.34;12246552;19;19933;-84
2022/09/15 14:36:52;;;;;;;;;;;22.50;48.80;;;20.71;55.21;99945.66;12251974;19;19922;-85
2022/09/15 14:40:55;;;;;;;;;;;22.60;48.80;;;20.69;54.60;99935.22;12248199;19;19959;-85
2022/09/15 14:45:09;;;;;;;;;;;22.40;48.60;;;20.60;54.72;99928.25;12250753;19;20374;-85
2022/09/15 14:49:11;;;;;;;;;;;22.40;48.50;;;20.62;55.00;99936.88;12252374;19;20385;-84
2022/09/15 14:53:19;;;;;;;;;;;22.40;48.50;;;20.57;54.86;99928.59;12246993;19;19919;-85
2022/09/15 14:57:23;;;;;;;;;;;22.30;48.40;;;20.58;54.81;99929.41;12250846;19;20380;-84
2022/09/15 15:01:36;;;;;;;;;;;22.30;48.30;;;20.41;54.59;99910.84;12247897;19;20300;-84
2022/09/15 15:05:41;;;;;;;;;;;22.50;48.30;;;20.53;54.88;99927.25;12246864;19;19919;-85
2022/09/15 15:09:45;;;;;;;;;;;22.30;48.40;;;20.50;54.77;99924.97;12248226;19;20260;-85
2022/09/15 15:13:50;;;;;;;;;;;22.30;48.30;;;20.47;54.64;99933.25;12245937;19;19935;-85
2022/09/15 15:17:53;;;;;;;;;;;22.30;48.50;;;20.41;54.80;99928.59;12248610;19;20605;-84
2022/09/15 15:22:04;;;;;;;;;;;22.30;48.40;;;20.48;54.74;99945.50;12252570;19;19919;-85
2022/09/15 15:26:26;;;;;;;;;;;22.20;48.00;;;20.45;54.71;99940.53;12252664;19;19922;-85
2022/09/15 15:30:29;;;;;;;;;;;22.20;48.30;;;20.43;54.61;99937.22;12247722;19;19922;-85
2022/09/15 15:34:34;;;;;;;;;;;22.20;48.20;;;20.36;54.73;99928.28;12243753;19;21170;-86
2022/09/15 15:38:40;;;;;;;;;;;22.10;48.40;;;20.38;54.67;99936.91;12246504;19;19947;-85
2022/09/15 15:42:58;;;;;;;;;;;22.10;48.30;;;20.40;54.46;99937.56;12241151;19;19925;-85
2022/09/15 15:47:22;;;;;;;;;;;22.10;48.20;;;20.39;54.13;99941.19;12257478;19;20336;-85
2022/09/15 15:51:24;;;;;;;;;;;22.10;48.30;;;20.18;54.13;99909.91;12259490;19;19923;-84
2022/09/15 15:55:36;;;;;;;;;;;22.10;48.20;;;19.79;54.60;99861.03;12259396;19;19919;-85
2022/09/15 15:59:37;;;;;;;;;;;22.30;48.00;;;19.84;54.56;99863.19;12254142;19;20558;-85
2022/09/15 16:03:38;;;;;;;;;;;22.40;47.90;;;20.24;54.16;99954.31;12249565;19;19923;-85
2022/09/15 16:07:39;;;;;;;;;;;22.00;47.70;;;20.08;54.05;99955.13;12255739;19;20328;-84
2022/09/15 16:11:41;;;;;;;;;;;22.10;47.50;;;20.11;54.30;99968.88;12253834;19;19915;-85
2022/09/15 16:15:43;;;;;;;;;;;21.90;48.10;;;20.05;54.33;99977.50;12249713;19;19922;-85
2022/09/15 16:19:45;;;;;;;;;;;21.90;47.90;;;19.75;54.11;99943.69;12252641;19;20336;-85
2022/09/15 16:23:46;;;;;;;;;;;22.10;48.10;;;19.85;54.17;99984.94;12251741;19;19931;-85
2022/09/15 16:27:48;;;;;;;;;;;21.70;48.00;;;19.19;54.11;99898.31;12252557;19;19923;-86
2022/09/15 16:31:49;;;;;;;;;;;21.60;48.10;;;19.13;54.19;99906.91;12246892;19;19918;-85
2022/09/15 16:36:05;;;;;;;;;;;21.50;48.10;;;19.57;54.20;99988.81;12253157;19;19918;-86
2022/09/15 16:40:07;;;;;;;;;;;21.40;48.20;;;19.50;54.12;99987.81;12253061;19;19982;-86
2022/09/15 16:44:18;;;;;;;;;;;21.30;48.30;;;19.06;54.38;99930.53;12251683;19;20340;-85
2022/09/15 16:48:20;;;;;;;;;;;21.30;48.30;;;19.27;54.27;99974.31;12254923;19;19918;-85
2022/09/15 16:52:21;;;;;;;;;;;21.20;48.30;;;19.23;54.17;99981.75;12252524;19;19929;-86
2022/09/15 16:56:23;;;;;;;;;;;21.10;48.30;;;19.06;54.27;99957.00;12257170;19;19922;-87
2022/09/15 17:00:26;;;;;;;;;;;21.00;48.50;;;19.15;54.53;99979.06;12258932;19;20289;-85
2022/09/15 17:04:27;;;;;;;;;;;21.20;48.60;;;18.97;54.53;99958.78;12260046;19;19919;-85
2022/09/15 17:08:31;;;;;;;;;;;20.90;48.50;;;18.98;54.41;99978.13;12262685;19;19915;-85
2022/09/15 17:12:33;;;;;;;;;;;20.80;48.60;;;18.68;54.27;99942.38;12258731;19;20298;-85
2022/09/15 17:16:34;;;;;;;;;;;20.80;48.60;;;18.88;54.22;99988.84;12259984;19;20250;-85
2022/09/15 17:20:38;;;;;;;;;;;20.70;48.60;;;18.86;54.25;99979.41;12262273;19;20011;-85
2022/09/15 17:24:40;;;;;;;;;;;20.80;48.60;;;18.73;54.29;99993.81;12266860;19;19915;-84
2022/09/15 17:28:41;;;;;;;;;;;20.60;48.50;;;18.71;54.28;100001.13;12256202;19;19919;-86
2022/09/15 17:32:43;;;;;;;;;;;20.60;48.40;;;18.61;54.53;99995.09;12253220;19;19930;-85
2022/09/15 17:36:45;;;;;;;;;;;20.50;48.30;;;18.56;54.21;99998.19;12258674;19;19931;-85
2022/09/15 17:40:48;;;;;;;;;;;20.70;48.60;;;18.40;54.45;99971.63;12259069;19;19922;-85
2022/09/15 17:44:49;;;;;;;;;;;20.60;48.60;;;18.58;54.43;100003.31;12255532;19;19918;-83
2022/09/15 17:48:51;;;;;;;;;;;20.40;48.60;;;18.54;54.37;100016.00;12256201;19;19943;-85
2022/09/15 17:52:53;;;;;;;;;;;20.30;48.60;;;18.49;54.17;100010.34;12254859;19;20242;-87
2022/09/15 17:56:55;;;;;;;;;;;20.30;48.80;;;18.43;54.40;99996.94;12256677;19;20259;-85
2022/09/15 18:00:57;;;;;;;;;;;20.20;48.80;;;18.36;54.28;99983.47;12255576;19;19919;-85
2022/09/15 18:04:59;;;;;;;;;;;20.30;48.80;;;18.42;54.40;100005.84;12256037;19;19925;-84
2022/09/15 18:09:00;;;;;;;;;;;20.30;48.80;;;18.38;54.50;100007.94;12258683;19;19910;-84
2022/09/15 18:13:04;;;;;;;;;;;20.10;48.70;;;18.20;54.31;99994.78;12260933;19;20265;-84
2022/09/15 18:17:05;;;;;;;;;;;20.10;48.60;;;18.28;54.62;100013.34;12261704;19;20071;-84
2022/09/15 18:21:08;;;;;;;;;;;20.40;48.90;;;18.20;54.34;100009.78;12260796;19;20278;-85
2022/09/15 18:25:24;;;;;;;;;;;20.10;48.70;;;18.17;54.46;100010.91;12258703;19;19922;-84
2022/09/15 18:29:25;;;;;;;;;;;20.00;48.70;;;18.19;54.29;100008.94;12259258;19;19930;-86
2022/09/15 18:33:27;;;;;;;;;;;20.00;48.80;;;18.11;54.25;100008.88;12254612;19;20328;-84
2022/09/15 18:37:28;;;;;;;;;;;20.00;48.80;;;18.10;54.20;100018.63;12256031;19;20453;-86
2022/09/15 18:41:30;;;;;;;;;;;20.10;48.90;;;18.11;54.34;100030.84;12254589;19;19931;-86